Time;durP1;ratioP1;P1;durP2;ratioP2;P2;SDS_P1;SDS_P2;PMS_P1;PMS_P2;Temp;Humidity;BMP_temperature;BMP_pressure;BME280_temperature;BME280_humidity;BME280_pressure;Samples;Min_cycle;Max_cycle;Signal;HPM_P1;HPM_P2
2022/12/19 00:01:15;;;;;;;;;30.00;25.25;;;;;-146.50;100.00;59256.41;5087482;27;45425;-73
2022/12/19 00:03:45;;;;;;;;;34.50;29.75;;;;;-146.50;100.00;59256.41;5073425;27;45495;-74
2022/12/19 00:06:12;;;;;;;;;34.50;30.50;;;;;-146.50;100.00;59256.41;5075458;27;45536;-74
2022/12/19 00:08:40;;;;;;;;;28.50;25.00;;;;;-146.50;100.00;59256.41;5090955;27;45457;-74
2022/12/19 00:11:06;;;;;;;;;33.25;29.50;;;;;-146.50;100.00;59256.41;5078117;27;45720;-73
2022/12/19 00:13:31;;;;;;;;;33.50;26.25;;;;;-146.50;100.00;59256.41;5080586;27;45870;-74
2022/12/19 00:16:05;;;;;;;;;38.50;32.75;;;;;-146.50;100.00;59256.41;5080383;27;45594;-74
2022/12/19 00:18:31;;;;;;;;;30.00;28.25;;;;;-146.50;100.00;59256.41;5082952;27;45494;-74
2022/12/19 00:20:59;;;;;;;;;25.00;20.00;;;;;-146.50;100.00;59256.41;5090365;27;45356;-72
2022/12/19 00:23:25;;;;;;;;;33.00;25.00;;;;;-146.50;100.00;59256.41;5083173;27;46167;-72
2022/12/19 00:25:50;;;;;;;;;34.75;30.50;;;;;-146.50;100.00;59256.41;5082853;27;45378;-73
2022/12/19 00:28:16;;;;;;;;;26.00;26.00;;;;;-146.50;100.00;59256.41;5123983;27;45318;-74
2022/12/19 00:30:41;;;;;;;;;24.00;19.25;;;;;-146.50;100.00;59256.41;5071656;27;45382;-74
2022/12/19 00:33:07;;;;;;;;;25.00;24.00;;;;;-146.50;100.00;59256.41;5079011;27;45989;-74
2022/12/19 00:35:32;;;;;;;;;26.50;24.75;;;;;-146.50;100.00;59256.41;5085431;27;45366;-74
2022/12/19 00:37:57;;;;;;;;;23.00;23.00;;;;;-146.50;100.00;59256.41;5065321;27;45436;-74
2022/12/19 00:40:23;;;;;;;;;23.25;21.50;;;;;-146.50;100.00;59256.41;5087866;27;45358;-74
2022/12/19 00:42:48;;;;;;;;;34.25;24.75;;;;;-146.50;100.00;59256.41;5068893;27;46106;-74
2022/12/19 00:45:13;;;;;;;;;35.00;28.75;;;;;-146.50;100.00;59256.41;5077317;27;45404;-74
2022/12/19 00:47:39;;;;;;;;;24.75;24.50;;;;;-146.50;100.00;59256.41;5084847;27;45435;-75
2022/12/19 00:50:04;;;;;;;;;22.50;17.75;;;;;-146.50;100.00;59256.41;5080566;27;45382;-72
2022/12/19 00:52:30;;;;;;;;;23.00;20.75;;;;;-146.50;100.00;59256.41;5079534;27;45510;-72
2022/12/19 00:54:55;;;;;;;;;26.00;23.50;;;;;-146.50;100.00;59256.41;5084835;27;45484;-73
2022/12/19 00:57:20;;;;;;;;;29.25;27.75;;;;;-146.50;100.00;59256.41;5086342;27;45425;-73
2022/12/19 00:59:46;;;;;;;;;22.75;19.75;;;;;-146.50;100.00;59256.41;5086370;27;45340;-73
2022/12/19 01:02:11;;;;;;;;;23.75;21.00;;;;;-146.50;100.00;59256.41;5078993;27;45622;-73
2022/12/19 01:04:37;;;;;;;;;19.75;18.75;;;;;-146.50;100.00;59256.41;5090889;27;45401;-73
2022/12/19 01:07:04;;;;;;;;;18.25;16.50;;;;;-146.50;100.00;59256.41;5079998;27;45493;-73
2022/12/19 01:09:31;;;;;;;;;25.75;21.00;;;;;-146.50;100.00;59256.41;5085314;27;45397;-73
2022/12/19 01:14:40;;;;;;;;;15.75;15.75;;;;;-146.50;100.00;59256.41;5077024;27;45299;-73
2022/12/19 01:17:06;;;;;;;;;16.50;16.50;;;;;-146.50;100.00;59256.41;5088340;27;45465;-73
2022/12/19 01:19:31;;;;;;;;;13.50;13.50;;;;;-146.50;100.00;59256.41;5083437;27;45432;-73
2022/12/19 01:21:56;;;;;;;;;14.25;14.25;;;;;-146.50;100.00;59256.41;5080824;27;45571;-74
2022/12/19 01:24:22;;;;;;;;;13.75;13.75;;;;;-146.50;100.00;59256.41;5090643;27;45346;-73
2022/12/19 01:26:47;;;;;;;;;18.25;15.25;;;;;-146.50;100.00;59256.41;5077366;27;45286;-73
2022/12/19 01:29:12;;;;;;;;;17.00;17.00;;;;;-146.50;100.00;59256.41;5087252;27;45428;-74
2022/12/19 01:31:38;;;;;;;;;16.75;14.50;;;;;-146.50;100.00;59256.41;5084222;27;46640;-74
2022/12/19 01:34:03;;;;;;;;;12.75;12.75;;;;;-146.50;100.00;59256.41;5079636;27;45413;-74
2022/12/19 01:36:29;;;;;;;;;18.50;16.00;;;;;-146.50;100.00;59256.41;5090507;27;45419;-74
2022/12/19 01:38:56;;;;;;;;;19.25;19.25;;;;;-146.50;100.00;59256.41;5077008;27;45677;-74
2022/12/19 01:41:21;;;;;;;;;13.00;13.00;;;;;-146.50;100.00;59256.41;5085686;27;45427;-73
2022/12/19 01:44:02;;;;;;;;;18.50;18.00;;;;;-146.50;100.00;59256.41;5085279;27;45430;-73
2022/12/19 01:46:41;;;;;;;;;21.25;18.50;;;;;-146.50;100.00;59256.41;5076627;27;45304;-74
2022/12/19 01:49:26;;;;;;;;;17.50;15.75;;;;;-146.50;100.00;59256.41;5073801;28;45374;-74
2022/12/19 01:51:56;;;;;;;;;16.75;16.50;;;;;-146.50;100.00;59256.41;5077315;27;45361;-73
2022/12/19 01:54:28;;;;;;;;;18.50;14.75;;;;;-146.50;100.00;59256.41;5077825;27;45401;-74
2022/12/19 01:56:56;;;;;;;;;17.75;14.25;;;;;-146.50;100.00;59256.41;5077930;27;45330;-73
2022/12/19 01:59:28;;;;;;;;;16.00;16.00;;;;;-146.50;100.00;59256.41;5076626;28;45375;-74
2022/12/19 02:02:01;;;;;;;;;14.75;14.00;;;;;-146.50;100.00;59256.41;5077538;27;46528;-73
2022/12/19 02:04:28;;;;;;;;;19.25;18.25;;;;;-146.50;100.00;59256.41;5078096;27;45480;-74
2022/12/19 02:06:56;;;;;;;;;20.00;20.00;;;;;-146.50;100.00;59256.41;5078097;27;45334;-73
2022/12/19 02:09:21;;;;;;;;;15.00;14.75;;;;;-146.50;100.00;59256.41;5077073;28;45383;-74
2022/12/19 02:11:46;;;;;;;;;16.50;13.50;;;;;-146.50;100.00;59256.41;5075553;28;45435;-72
2022/12/19 02:14:12;;;;;;;;;15.75;13.75;;;;;-146.50;100.00;59256.41;5076932;27;45300;-75
2022/12/19 02:17:11;;;;;;;;;11.50;11.50;;;;;-146.50;100.00;59256.41;5077217;27;45376;-73
2022/12/19 02:20:01;;;;;;;;;14.25;14.25;;;;;-146.50;100.00;59256.41;5077520;27;45381;-76
2022/12/19 02:22:52;;;;;;;;;16.00;14.00;;;;;-146.50;100.00;59256.41;5077119;28;46376;-75
2022/12/19 02:25:50;;;;;;;;;18.50;16.00;;;;;-146.50;100.00;59256.41;5076694;27;45381;-76
2022/12/19 02:28:34;;;;;;;;;13.00;13.00;;;;;-146.50;100.00;59256.41;5077009;27;45404;-76
2022/12/19 02:31:11;;;;;;;;;13.75;12.75;;;;;-146.50;100.00;59256.41;5077316;28;45422;-76
2022/12/19 02:33:46;;;;;;;;;17.25;15.50;;;;;-146.50;100.00;59256.41;5077075;27;46418;-76
2022/12/19 02:36:20;;;;;;;;;16.50;16.50;;;;;-146.50;100.00;59256.41;5076749;28;45425;-76
2022/12/19 02:39:04;;;;;;;;;16.00;16.00;;;;;-146.50;100.00;59256.41;5076933;27;45318;-75
2022/12/19 02:41:43;;;;;;;;;15.75;14.75;;;;;-146.50;100.00;59256.41;5076969;27;45267;-75
2022/12/19 02:44:20;;;;;;;;;18.00;14.75;;;;;-146.50;100.00;59256.41;5076696;27;46339;-75
2022/12/19 02:46:48;;;;;;;;;14.25;13.75;;;;;-146.50;100.00;59256.41;5076802;27;45432;-75
2022/12/19 02:49:14;;;;;;;;;15.00;12.50;;;;;-146.50;100.00;59256.41;5076795;27;45575;-75
2022/12/19 02:51:39;;;;;;;;;12.50;11.00;;;;;-146.50;100.00;59256.41;5076590;27;45392;-75
2022/12/19 02:54:06;;;;;;;;;16.25;16.25;;;;;-146.50;100.00;59256.41;5076774;28;45648;-75
2022/12/19 02:57:00;;;;;;;;;15.25;14.00;;;;;-146.50;100.00;59256.41;5076894;27;45301;-75
2022/12/19 02:59:59;;;;;;;;;15.50;11.75;;;;;-146.50;100.00;59256.41;5063001;27;45337;-75
2022/12/19 03:02:46;;;;;;;;;12.75;11.25;;;;;-146.50;100.00;59256.41;5075636;28;45393;-76
2022/12/19 03:05:47;;;;;;;;;13.25;11.50;;;;;-146.50;100.00;59256.41;5077558;27;46758;-75
2022/12/19 03:08:27;;;;;;;;;14.25;14.00;;;;;-146.50;100.00;59256.41;5054229;28;45272;-75
2022/12/19 03:11:08;;;;;;;;;12.00;10.75;;;;;-146.50;100.00;59256.41;5054580;28;45396;-75
2022/12/19 03:13:40;;;;;;;;;10.25;10.25;;;;;-146.50;100.00;59256.41;5053142;28;45502;-75
2022/12/19 03:16:09;;;;;;;;;11.50;11.50;;;;;-146.50;100.00;59256.41;5037256;28;48328;-76
2022/12/19 03:18:35;;;;;;;;;12.00;11.75;;;;;-146.50;100.00;59256.41;5053553;28;45497;-76
2022/12/19 03:21:03;;;;;;;;;11.25;10.00;;;;;-146.50;100.00;59256.41;5054010;28;45517;-75
2022/12/19 03:23:30;;;;;;;;;9.50;9.50;;;;;-146.50;100.00;59256.41;5053462;28;45557;-73
2022/12/19 03:26:01;;;;;;;;;10.50;9.25;;;;;-146.50;100.00;59256.41;5053667;28;46601;-75
2022/12/19 03:28:37;;;;;;;;;12.50;11.25;;;;;-146.50;100.00;59256.41;5053049;28;45375;-75
2022/12/19 03:31:04;;;;;;;;;11.25;9.50;;;;;-146.50;100.00;59256.41;5053539;28;45442;-75
2022/12/19 03:33:31;;;;;;;;;8.75;8.75;;;;;-146.50;100.00;59256.41;5053412;28;45347;-75
2022/12/19 03:36:03;;;;;;;;;10.75;9.75;;;;;-146.50;100.00;59256.41;5053261;28;46322;-75
2022/12/19 03:38:30;;;;;;;;;14.50;11.50;;;;;-146.50;100.00;59256.41;5053247;28;45737;-75
2022/12/19 03:40:58;;;;;;;;;11.25;11.25;;;;;-146.50;100.00;59256.41;5053343;28;45423;-75
2022/12/19 03:43:25;;;;;;;;;11.00;10.00;;;;;-146.50;100.00;59256.41;5061052;28;45451;-75
2022/12/19 03:45:59;;;;;;;;;20.50;14.75;;;;;-146.50;100.00;59256.41;5076038;27;45408;-75
2022/12/19 03:48:45;;;;;;;;;22.50;12.50;;;;;-146.50;100.00;59256.41;5074636;28;45418;-73
2022/12/19 03:51:19;;;;;;;;;16.50;14.75;;;;;-146.50;100.00;59256.41;5075900;28;45426;-75
2022/12/19 03:53:51;;;;;;;;;13.50;10.75;;;;;-146.50;100.00;59256.41;5074412;28;45367;-75
2022/12/19 03:56:24;;;;;;;;;10.00;10.00;;;;;-146.50;100.00;59256.41;5075353;27;45370;-74
2022/12/19 03:58:57;;;;;;;;;12.50;12.50;;;;;-146.50;100.00;59256.41;5075584;27;45322;-75
2022/12/19 04:01:26;;;;;;;;;13.75;13.75;;;;;-146.50;100.00;59256.41;5075571;27;45391;-74
2022/12/19 04:03:53;;;;;;;;;15.50;14.50;;;;;-146.50;100.00;59256.41;5074806;28;45236;-75
2022/12/19 04:06:19;;;;;;;;;16.50;14.50;;;;;-146.50;100.00;59256.41;5070553;28;47399;-74
2022/12/19 04:08:45;;;;;;;;;16.00;15.25;;;;;-146.50;100.00;59256.41;5054858;28;45953;-74
2022/12/19 04:11:18;;;;;;;;;16.00;14.00;;;;;-146.50;100.00;59256.41;5054894;28;45465;-74
2022/12/19 04:13:50;;;;;;;;;14.75;13.00;;;;;-146.50;100.00;59256.41;5058514;28;45438;-74
2022/12/19 04:16:29;;;;;;;;;15.00;14.00;;;;;-146.50;100.00;59256.41;5090624;27;48475;-75
2022/12/19 04:19:02;;;;;;;;;17.25;16.00;;;;;-146.50;100.00;59256.41;5074888;27;45427;-73
2022/12/19 04:21:34;;;;;;;;;9.00;8.00;;;;;-146.50;100.00;59256.41;5073978;28;45296;-75
2022/12/19 04:24:10;;;;;;;;;16.75;15.25;;;;;-146.50;100.00;59256.41;5074190;28;45430;-75
2022/12/19 04:26:37;;;;;;;;;17.75;13.00;;;;;-146.50;100.00;59256.41;5075138;27;46582;-74
2022/12/19 04:29:06;;;;;;;;;14.75;14.75;;;;;-146.50;100.00;59256.41;5075384;27;45433;-72
2022/12/19 04:31:31;;;;;;;;;14.75;14.75;;;;;-146.50;100.00;59256.41;5075297;27;45459;-73
2022/12/19 04:33:57;;;;;;;;;16.00;14.25;;;;;-146.50;100.00;59256.41;5074871;27;45508;-72
2022/12/19 04:36:24;;;;;;;;;16.00;14.25;;;;;-146.50;100.00;59256.41;5073673;28;47145;-73
2022/12/19 04:38:49;;;;;;;;;15.25;14.25;;;;;-146.50;100.00;59256.41;5075104;27;45394;-73
2022/12/19 04:41:14;;;;;;;;;13.75;13.00;;;;;-146.50;100.00;59256.41;5074998;27;45323;-73
2022/12/19 04:43:40;;;;;;;;;13.00;11.00;;;;;-146.50;100.00;59256.41;5075020;27;45464;-73
2022/12/19 04:46:05;;;;;;;;;10.25;9.75;;;;;-146.50;100.00;59256.41;5074937;27;46172;-73
2022/12/19 04:48:33;;;;;;;;;17.25;14.00;;;;;-146.50;100.00;59256.41;5075194;27;45288;-74
2022/12/19 04:50:58;;;;;;;;;20.00;19.25;;;;;-146.50;100.00;59256.41;5075277;27;45409;-73
2022/12/19 04:53:24;;;;;;;;;10.25;10.25;;;;;-146.50;100.00;59256.41;5074833;27;45350;-73
2022/12/19 04:55:49;;;;;;;;;15.25;14.00;;;;;-146.50;100.00;59256.41;5074643;27;45607;-73
2022/12/19 04:58:14;;;;;;;;;17.00;16.00;;;;;-146.50;100.00;59256.41;5090388;27;45393;-73
2022/12/19 05:00:40;;;;;;;;;14.75;11.75;;;;;-146.50;100.00;59256.41;5075159;27;45505;-73
2022/12/19 05:03:05;;;;;;;;;13.25;11.25;;;;;-146.50;100.00;59256.41;5075164;27;45437;-73
2022/12/19 05:05:30;;;;;;;;;13.25;11.00;;;;;-146.50;100.00;59256.41;5075149;27;46218;-73
2022/12/19 05:07:56;;;;;;;;;9.75;9.75;;;;;-146.50;100.00;59256.41;5075444;27;45424;-74
2022/12/19 05:10:21;;;;;;;;;15.00;14.00;;;;;-146.50;100.00;59256.41;5075710;27;46129;-73
2022/12/19 05:12:47;;;;;;;;;15.50;12.25;;;;;-146.50;100.00;59256.41;5075870;27;45430;-75
2022/12/19 05:15:12;;;;;;;;;15.00;13.75;;;;;-146.50;100.00;59256.41;5074420;27;45525;-75
2022/12/19 05:17:37;;;;;;;;;7.25;7.25;;;;;-146.50;100.00;59256.41;5074714;27;45373;-75
2022/12/19 05:20:03;;;;;;;;;14.25;14.25;;;;;-146.50;100.00;59256.41;5074977;27;45377;-75
2022/12/19 05:22:29;;;;;;;;;13.50;13.50;;;;;-146.50;100.00;59256.41;5073769;28;45346;-75
2022/12/19 05:24:54;;;;;;;;;10.00;10.00;;;;;-146.50;100.00;59256.41;5076400;27;45290;-75
2022/12/19 05:27:20;;;;;;;;;16.75;13.25;;;;;-146.50;100.00;59256.41;5077956;27;45354;-75
2022/12/19 05:29:45;;;;;;;;;21.50;16.00;;;;;-146.50;100.00;59256.41;5078105;27;45274;-75
2022/12/19 05:32:10;;;;;;;;;23.75;23.25;;;;;-146.50;100.00;59256.41;5078208;27;45317;-75
2022/12/19 05:34:36;;;;;;;;;22.00;18.75;;;;;-146.50;100.00;59256.41;5077663;27;46090;-74
2022/12/19 05:37:02;;;;;;;;;18.50;18.25;;;;;-146.50;100.00;59256.41;5077471;27;45345;-75
2022/12/19 05:39:28;;;;;;;;;25.50;21.00;;;;;-146.50;100.00;59256.41;5077998;27;45236;-74
2022/12/19 05:41:53;;;;;;;;;23.00;23.00;;;;;-146.50;100.00;59256.41;5076664;28;45434;-75
2022/12/19 05:44:19;;;;;;;;;12.50;12.25;;;;;-146.50;100.00;59256.41;5076251;28;46919;-74
2022/12/19 05:46:44;;;;;;;;;22.25;20.00;;;;;-146.50;100.00;59256.41;5077522;27;45506;-73
2022/12/19 05:49:09;;;;;;;;;22.50;21.50;;;;;-146.50;100.00;59256.41;5077895;27;46035;-73
2022/12/19 05:51:35;;;;;;;;;24.00;22.00;;;;;-146.50;100.00;59256.41;5076869;27;45435;-74
2022/12/19 05:54:00;;;;;;;;;22.25;20.25;;;;;-146.50;100.00;59256.41;5077404;27;45494;-74
2022/12/19 05:56:26;;;;;;;;;23.50;22.00;;;;;-146.50;100.00;59256.41;5077299;27;45371;-73
2022/12/19 05:58:51;;;;;;;;;22.50;22.50;;;;;-146.50;100.00;59256.41;5077331;27;45556;-74
2022/12/19 06:01:17;;;;;;;;;29.25;23.75;;;;;-146.50;100.00;59256.41;5077828;27;45484;-74
2022/12/19 06:03:42;;;;;;;;;22.00;20.25;;;;;-146.50;100.00;59256.41;5077465;27;46375;-74
2022/12/19 06:06:11;;;;;;;;;24.00;24.00;;;;;-146.50;100.00;59256.41;5089174;27;45529;-74
2022/12/19 06:08:37;;;;;;;;;19.50;19.00;;;;;-146.50;100.00;59256.41;5062067;28;45472;-73
2022/12/19 06:11:05;;;;;;;;;19.75;18.00;;;;;-146.50;100.00;59256.41;5073653;28;45422;-74
2022/12/19 06:13:31;;;;;;;;;14.00;12.50;;;;;-146.50;100.00;59256.41;5076222;27;46306;-74
2022/12/19 06:16:05;;;;;;;;;19.75;18.00;;;;;-146.50;100.00;59256.41;5077286;27;45629;-74
2022/12/19 06:18:30;;;;;;;;;19.50;18.00;;;;;-146.50;100.00;59256.41;5076328;28;45643;-72
2022/12/19 06:21:16;;;;;;;;;19.00;17.25;;;;;-146.50;100.00;59256.41;5077150;27;45532;-73
2022/12/19 06:23:43;;;;;;;;;18.25;17.75;;;;;-146.50;100.00;59256.41;5075561;27;45447;-72
2022/12/19 06:26:11;;;;;;;;;19.75;15.75;;;;;-146.50;100.00;59256.41;5076023;27;45496;-73
2022/12/19 06:28:36;;;;;;;;;14.25;13.25;;;;;-146.50;100.00;59256.41;5077187;27;45372;-72
2022/12/19 06:31:03;;;;;;;;;16.25;15.50;;;;;-146.50;100.00;59256.41;5076315;27;45598;-72
2022/12/19 06:33:30;;;;;;;;;17.00;15.25;;;;;-146.50;100.00;59256.41;5072406;28;46165;-72
2022/12/19 06:36:02;;;;;;;;;14.00;14.00;;;;;-146.50;100.00;59256.41;5066115;28;45379;-72
2022/12/19 06:38:28;;;;;;;;;12.25;9.00;;;;;-146.50;100.00;59256.41;5077255;28;45306;-73
2022/12/19 06:43:37;;;;;;;;;18.75;15.75;;;;;-146.50;100.00;59256.41;5067406;28;45806;-72
2022/12/19 06:46:03;;;;;;;;;19.75;15.00;;;;;-146.50;100.00;59256.41;5064802;28;45353;-73
2022/12/19 06:48:29;;;;;;;;;16.75;14.75;;;;;-146.50;100.00;59256.41;5076919;28;45655;-74
2022/12/19 06:50:54;;;;;;;;;13.75;12.50;;;;;-146.50;100.00;59256.41;5076040;27;45507;-74
2022/12/19 06:53:20;;;;;;;;;14.00;13.75;;;;;-146.50;100.00;59256.41;5076631;28;46187;-74
2022/12/19 06:55:47;;;;;;;;;16.50;15.00;;;;;-146.50;100.00;59256.41;5076670;28;45486;-74
2022/12/19 06:58:12;;;;;;;;;15.75;14.00;;;;;-146.50;100.00;59256.41;5073126;27;45506;-74
2022/12/19 07:00:37;;;;;;;;;16.50;16.50;;;;;-146.50;100.00;59256.41;5064724;28;45397;-74
2022/12/19 07:03:08;;;;;;;;;16.00;14.25;;;;;-146.50;100.00;59256.41;5056045;28;45428;-74
2022/12/19 07:05:34;;;;;;;;;14.00;11.75;;;;;-146.50;100.00;59256.41;5075021;28;45378;-74
2022/12/19 07:07:59;;;;;;;;;15.00;12.00;;;;;-146.50;100.00;59256.41;5076570;28;45402;-74
2022/12/19 07:10:25;;;;;;;;;9.50;9.50;;;;;-146.50;100.00;59256.41;5076667;28;45310;-74
2022/12/19 07:12:50;;;;;;;;;10.50;9.50;;;;;-146.50;100.00;59256.41;5075806;28;45365;-74
2022/12/19 07:15:15;;;;;;;;;13.25;9.75;;;;;-146.50;100.00;59256.41;5068514;28;45516;-74
2022/12/19 07:17:41;;;;;;;;;12.50;9.75;;;;;-146.50;100.00;59256.41;5075239;28;45510;-74
2022/12/19 07:20:08;;;;;;;;;11.50;11.25;;;;;-146.50;100.00;59256.41;5075459;27;45386;-74
2022/12/19 07:22:34;;;;;;;;;9.50;9.00;;;;;-146.50;100.00;59256.41;5075019;28;45709;-73
2022/12/19 07:25:02;;;;;;;;;9.25;8.00;;;;;-146.50;100.00;59256.41;5069625;28;45456;-73
2022/12/19 07:27:28;;;;;;;;;13.00;12.75;;;;;-146.50;100.00;59256.41;5058965;27;45318;-73
2022/12/19 07:29:54;;;;;;;;;11.00;11.00;;;;;-146.50;100.00;59256.41;5055717;28;45641;-73
2022/12/19 07:32:20;;;;;;;;;15.75;11.75;;;;;-146.50;100.00;59256.41;5055557;28;45966;-73
2022/12/19 07:34:46;;;;;;;;;11.25;11.25;;;;;-146.50;100.00;59256.41;5075735;27;45452;-73
2022/12/19 07:37:11;;;;;;;;;13.25;13.25;;;;;-146.50;100.00;59256.41;5062626;28;45415;-73
2022/12/19 07:39:36;;;;;;;;;14.00;11.75;;;;;-146.50;100.00;59256.41;5056104;28;45437;-74
2022/12/19 07:42:02;;;;;;;;;12.00;10.00;;;;;-146.50;100.00;59256.41;5069371;28;47234;-74
2022/12/19 07:44:27;;;;;;;;;10.75;9.75;;;;;-146.50;100.00;59256.41;5075373;28;45465;-73
2022/12/19 07:46:53;;;;;;;;;9.75;9.75;;;;;-146.50;100.00;59256.41;5066684;28;45698;-73
2022/12/19 07:49:18;;;;;;;;;13.25;9.25;;;;;-146.50;100.00;59256.41;5075304;28;45431;-73
2022/12/19 07:51:43;;;;;;;;;9.50;8.50;;;;;-146.50;100.00;59256.41;5075852;28;46135;-73
2022/12/19 07:54:09;;;;;;;;;8.50;8.50;;;;;-146.50;100.00;59256.41;5076164;27;45380;-74
2022/12/19 07:56:34;;;;;;;;;11.25;11.00;;;;;-146.50;100.00;59256.41;5076693;28;45393;-73
2022/12/19 07:58:59;;;;;;;;;14.75;14.75;;;;;-146.50;100.00;59256.41;5075101;28;45510;-73
2022/12/19 08:01:25;;;;;;;;;9.25;9.00;;;;;-146.50;100.00;59256.41;5075603;28;45882;-73
2022/12/19 08:03:51;;;;;;;;;10.00;10.00;;;;;-146.50;100.00;59256.41;5076663;28;45382;-74
2022/12/19 08:06:16;;;;;;;;;12.50;11.00;;;;;-146.50;100.00;59256.41;5072571;28;45413;-73
2022/12/19 08:08:41;;;;;;;;;11.25;11.00;;;;;-146.50;100.00;59256.41;5057621;28;45387;-72
2022/12/19 08:11:13;;;;;;;;;10.00;10.00;;;;;-146.50;100.00;59256.41;5056607;28;46300;-73
2022/12/19 08:13:38;;;;;;;;;10.75;10.75;;;;;-146.50;100.00;59256.41;5056419;28;45346;-73
2022/12/19 08:16:04;;;;;;;;;11.00;11.00;;;;;-146.50;100.00;59256.41;5054564;28;45311;-73
2022/12/19 08:18:30;;;;;;;;;10.00;10.00;;;;;-146.50;100.00;59256.41;5054965;28;45301;-73
2022/12/19 08:20:55;;;;;;;;;9.25;8.00;;;;;-146.50;100.00;59256.41;5054795;28;46071;-73
2022/12/19 08:23:21;;;;;;;;;13.00;12.75;;;;;-146.50;100.00;59256.41;5074644;28;45302;-73
2022/12/19 08:25:46;;;;;;;;;12.50;11.00;;;;;-146.50;100.00;59256.41;5073647;28;45376;-73
2022/12/19 08:28:11;;;;;;;;;13.25;13.25;;;;;-146.50;100.00;59256.41;5075189;27;45229;-73
2022/12/19 08:30:38;;;;;;;;;12.25;9.25;;;;;-146.50;100.00;59256.41;5072993;28;45399;-73
2022/12/19 08:33:04;;;;;;;;;12.75;10.75;;;;;-146.50;100.00;59256.41;5074025;27;45540;-73
2022/12/19 08:35:30;;;;;;;;;10.00;9.00;;;;;-146.50;100.00;59256.41;5074556;27;45426;-73
2022/12/19 08:37:56;;;;;;;;;9.25;8.75;;;;;-146.50;100.00;59256.41;5074771;27;45381;-73
2022/12/19 08:40:22;;;;;;;;;12.25;11.00;;;;;-146.50;100.00;59256.41;5073857;28;45570;-73
2022/12/19 08:42:49;;;;;;;;;9.50;9.50;;;;;-146.50;100.00;59256.41;5074835;27;45734;-73
2022/12/19 08:45:15;;;;;;;;;12.00;10.50;;;;;-146.50;100.00;59256.41;5074176;28;45484;-73
2022/12/19 08:47:42;;;;;;;;;9.25;9.25;;;;;-146.50;100.00;59256.41;5075240;27;45293;-73
2022/12/19 08:50:08;;;;;;;;;10.00;9.00;;;;;-146.50;100.00;59256.41;5074850;27;46301;-74
2022/12/19 08:52:33;;;;;;;;;9.50;9.50;;;;;-146.50;100.00;59256.41;5074996;28;45381;-73
2022/12/19 08:54:59;;;;;;;;;9.50;8.50;;;;;-146.50;100.00;59256.41;5074822;27;45380;-73
2022/12/19 08:57:25;;;;;;;;;9.50;9.50;;;;;-146.50;100.00;59256.41;5075093;27;45459;-73
2022/12/19 08:59:50;;;;;;;;;9.25;9.25;;;;;-146.50;100.00;59256.41;5076498;27;45919;-73
2022/12/19 09:02:15;;;;;;;;;9.50;9.50;;;;;-146.50;100.00;59256.41;5078311;27;45457;-73
2022/12/19 09:04:41;;;;;;;;;6.00;4.75;;;;;-146.50;100.00;59256.41;5078343;27;45457;-73
2022/12/19 09:07:06;;;;;;;;;10.00;10.00;;;;;-146.50;100.00;59256.41;5078189;28;45350;-73
2022/12/19 09:09:32;;;;;;;;;14.50;12.75;;;;;-146.50;100.00;59256.41;5078415;27;46007;-73
2022/12/19 09:11:57;;;;;;;;;9.00;8.00;;;;;-146.50;100.00;59256.41;5077116;28;45926;-73
2022/12/19 09:14:22;;;;;;;;;7.50;7.50;;;;;-146.50;100.00;59256.41;5078392;27;45787;-73
2022/12/19 09:16:48;;;;;;;;;7.00;7.00;;;;;-146.50;100.00;59256.41;5077795;27;45290;-73
2022/12/19 09:19:15;;;;;;;;;13.00;9.25;;;;;-146.50;100.00;59256.41;5077714;27;45361;-73
2022/12/19 09:21:40;;;;;;;;;7.00;7.00;;;;;-146.50;100.00;59256.41;5077670;27;45330;-73
2022/12/19 09:24:07;;;;;;;;;8.25;7.50;;;;;-146.50;100.00;59256.41;5078335;27;45358;-72
2022/12/19 09:26:34;;;;;;;;;8.25;8.25;;;;;-146.50;100.00;59256.41;5078717;27;45300;-72
2022/12/19 09:29:00;;;;;;;;;8.50;8.50;;;;;-146.50;100.00;59256.41;5077798;27;45984;-71
2022/12/19 09:31:25;;;;;;;;;7.25;6.00;;;;;-146.50;100.00;59256.41;5077921;27;45574;-71
2022/12/19 09:33:51;;;;;;;;;10.00;10.00;;;;;-146.50;100.00;59256.41;5078237;27;45446;-72
2022/12/19 09:36:23;;;;;;;;;8.00;8.00;;;;;-146.50;100.00;59256.41;5077757;27;45402;-74
2022/12/19 09:38:51;;;;;;;;;8.00;8.00;;;;;-146.50;100.00;59256.41;5077350;27;47260;-73
2022/12/19 09:41:43;;;;;;;;;8.00;8.00;;;;;-146.50;100.00;59256.41;5077677;27;45461;-73
2022/12/19 09:44:23;;;;;;;;;12.50;12.25;;;;;-146.50;100.00;59256.41;5077856;27;45347;-73
2022/12/19 09:46:59;;;;;;;;;9.75;9.50;;;;;-146.50;100.00;59256.41;5077884;27;45331;-73
2022/12/19 09:49:28;;;;;;;;;11.75;9.75;;;;;-146.50;100.00;59256.41;5077925;27;46239;-73
2022/12/19 09:52:04;;;;;;;;;11.25;10.25;;;;;-146.50;100.00;59256.41;5077679;28;45318;-73
2022/12/19 09:54:35;;;;;;;;;9.75;8.50;;;;;-146.50;100.00;59256.41;5077761;28;45391;-74
2022/12/19 09:57:05;;;;;;;;;12.50;10.50;;;;;-146.50;100.00;59256.41;5077745;28;45457;-73
2022/12/19 09:59:50;;;;;;;;;10.25;9.00;;;;;-146.50;100.00;59256.41;5077629;27;45358;-73
2022/12/19 10:02:18;;;;;;;;;11.00;11.00;;;;;-146.50;100.00;59256.41;5077354;27;45299;-72
2022/12/19 10:04:50;;;;;;;;;10.00;10.00;;;;;-146.50;100.00;59256.41;5077654;28;45445;-72
2022/12/19 10:07:18;;;;;;;;;11.25;10.00;;;;;-146.50;100.00;59256.41;5077664;28;45322;-72
2022/12/19 10:09:44;;;;;;;;;11.25;10.75;;;;;-146.50;100.00;59256.41;5077019;28;45452;-72
2022/12/19 10:12:24;;;;;;;;;11.50;10.50;;;;;-146.50;100.00;59256.41;5076114;28;45421;-71
2022/12/19 10:15:05;;;;;;;;;10.00;8.50;;;;;-146.50;100.00;59256.41;5076245;28;45525;-71
2022/12/19 10:18:00;;;;;;;;;9.75;9.00;;;;;-146.50;100.00;59256.41;5076902;28;45314;-72
2022/12/19 10:20:32;;;;;;;;;9.00;7.50;;;;;-146.50;100.00;59256.41;5075198;28;47314;-72
2022/12/19 10:23:01;;;;;;;;;10.25;8.25;;;;;-146.50;100.00;59256.41;5076996;28;45344;-72
2022/12/19 10:25:29;;;;;;;;;11.25;10.00;;;;;-146.50;100.00;59256.41;5077054;28;45288;-73
2022/12/19 10:28:04;;;;;;;;;8.75;8.75;;;;;-146.50;100.00;59256.41;5075979;27;45457;-73
2022/12/19 10:30:37;;;;;;;;;9.75;9.75;;;;;-146.50;100.00;59256.41;5075103;27;46375;-73
2022/12/19 10:33:55;;;;;;;;;8.50;5.75;;;;;-146.50;100.00;59256.41;5075030;27;45395;-71
2022/12/19 10:36:23;;;;;;;;;8.75;8.75;;;;;-146.50;100.00;59256.41;5012018;28;45462;-73
2022/12/19 10:39:07;;;;;;;;;10.00;7.75;;;;;-146.50;100.00;59256.41;5011843;28;45594;-72
2022/12/19 10:41:33;;;;;;;;;10.50;10.50;;;;;-146.50;100.00;59256.41;5011279;28;46226;-72
2022/12/19 10:44:01;;;;;;;;;9.50;6.50;;;;;-146.50;100.00;59256.41;5011224;28;45598;-72
2022/12/19 10:46:45;;;;;;;;;9.75;9.75;;;;;-146.50;100.00;59256.41;5011829;28;45808;-74
2022/12/19 10:49:13;;;;;;;;;7.50;6.00;;;;;-146.50;100.00;59256.41;5011855;28;45801;-73
2022/12/19 10:51:41;;;;;;;;;6.50;6.50;;;;;-146.50;100.00;59256.41;5011624;28;45455;-73
2022/12/19 10:54:06;;;;;;;;;8.50;6.00;;;;;-146.50;100.00;59256.41;5011523;28;45576;-73
2022/12/19 10:56:32;;;;;;;;;5.75;5.75;;;;;-146.50;100.00;59256.41;5011657;28;45467;-73
2022/12/19 10:59:00;;;;;;;;;7.25;6.75;;;;;-146.50;100.00;59256.41;5012212;28;45771;-73
2022/12/19 11:01:36;;;;;;;;;7.00;7.00;;;;;-146.50;100.00;59256.41;5012194;28;48107;-73
2022/12/19 11:04:23;;;;;;;;;5.50;5.50;;;;;-146.50;100.00;59256.41;5011924;28;45415;-73
2022/12/19 11:07:03;;;;;;;;;4.00;4.00;;;;;-146.50;100.00;59256.41;5012226;28;45629;-73
2022/12/19 11:09:35;;;;;;;;;8.25;8.25;;;;;-146.50;100.00;59256.41;5024140;28;45509;-73
2022/12/19 11:12:06;;;;;;;;;10.00;6.25;;;;;-146.50;100.00;59256.41;5055803;28;45453;-73